sensor_id;sensor_type;location;lat;lon;timestamp;P1;durP1;ratioP1;P2;durP2;ratioP2
41303;SDS011;51002;51.462;7.218;2023-06-22T00:01:57;1.47;;;0.40;;
41303;SDS011;51002;51.462;7.218;2023-06-22T00:04:24;1.50;;;0.50;;
41303;SDS011;51002;51.462;7.218;2023-06-22T00:06:52;1.60;;;0.57;;
41303;SDS011;51002;51.462;7.218;2023-06-22T00:09:20;1.47;;;0.40;;
41303;SDS011;51002;51.462;7.218;2023-06-22T00:11:45;1.57;;;0.50;;
41303;SDS011;51002;51.462;7.218;2023-06-22T00:14:11;1.57;;;0.40;;
41303;SDS011;51002;51.462;7.218;2023-06-22T00:16:37;1.43;;;0.30;;
41303;SDS011;51002;51.462;7.218;2023-06-22T00:19:02;2.23;;;0.60;;
41303;SDS011;51002;51.462;7.218;2023-06-22T00:21:28;1.13;;;0.30;;
41303;SDS011;51002;51.462;7.218;2023-06-22T00:23:56;1.88;;;0.70;;
41303;SDS011;51002;51.462;7.218;2023-06-22T00:26:22;1.50;;;0.40;;
41303;SDS011;51002;51.462;7.218;2023-06-22T00:28:48;1.57;;;0.40;;
41303;SDS011;51002;51.462;7.218;2023-06-22T00:31:14;1.60;;;0.47;;
41303;SDS011;51002;51.462;7.218;2023-06-22T00:33:39;1.57;;;0.50;;
41303;SDS011;51002;51.462;7.218;2023-06-22T00:36:07;1.40;;;0.50;;
41303;SDS011;51002;51.462;7.218;2023-06-22T00:38:33;1.53;;;0.40;;
41303;SDS011;51002;51.462;7.218;2023-06-22T00:40:59;1.57;;;0.40;;
41303;SDS011;51002;51.462;7.218;2023-06-22T00:43:24;1.50;;;0.37;;
41303;SDS011;51002;51.462;7.218;2023-06-22T00:45:50;1.53;;;0.23;;
41303;SDS011;51002;51.462;7.218;2023-06-22T00:48:21;1.50;;;0.30;;
41303;SDS011;51002;51.462;7.218;2023-06-22T00:50:47;2.03;;;0.50;;
41303;SDS011;51002;51.462;7.218;2023-06-22T00:53:16;27.00;;;9.83;;
41303;SDS011;51002;51.462;7.218;2023-06-22T00:55:42;2.13;;;0.63;;
41303;SDS011;51002;51.462;7.218;2023-06-22T00:58:10;1.40;;;0.52;;
41303;SDS011;51002;51.462;7.218;2023-06-22T01:00:37;2.00;;;0.47;;
41303;SDS011;51002;51.462;7.218;2023-06-22T01:03:06;2.20;;;0.50;;
41303;SDS011;51002;51.462;7.218;2023-06-22T01:05:35;1.43;;;0.47;;
41303;SDS011;51002;51.462;7.218;2023-06-22T01:13:04;2.17;;;0.60;;
41303;SDS011;51002;51.462;7.218;2023-06-22T01:15:44;1.75;;;0.52;;
41303;SDS011;51002;51.462;7.218;2023-06-22T01:18:14;1.57;;;0.50;;
41303;SDS011;51002;51.462;7.218;2023-06-22T01:20:41;1.20;;;0.30;;
41303;SDS011;51002;51.462;7.218;2023-06-22T01:25:53;1.30;;;0.30;;
41303;SDS011;51002;51.462;7.218;2023-06-22T01:28:52;2.83;;;0.80;;
41303;SDS011;51002;51.462;7.218;2023-06-22T01:31:18;1.30;;;0.32;;
41303;SDS011;51002;51.462;7.218;2023-06-22T01:33:49;1.13;;;0.20;;
41303;SDS011;51002;51.462;7.218;2023-06-22T01:36:21;1.77;;;0.40;;
41303;SDS011;51002;51.462;7.218;2023-06-22T01:38:48;1.47;;;0.33;;
41303;SDS011;51002;51.462;7.218;2023-06-22T01:41:14;7.20;;;2.10;;
41303;SDS011;51002;51.462;7.218;2023-06-22T01:43:41;45.20;;;15.17;;
41303;SDS011;51002;51.462;7.218;2023-06-22T01:46:08;36.27;;;12.80;;
41303;SDS011;51002;51.462;7.218;2023-06-22T01:48:36;81.15;;;29.70;;
41303;SDS011;51002;51.462;7.218;2023-06-22T01:53:30;74.07;;;27.23;;
41303;SDS011;51002;51.462;7.218;2023-06-22T01:55:59;21.02;;;7.38;;
41303;SDS011;51002;51.462;7.218;2023-06-22T01:58:27;1.40;;;0.35;;
41303;SDS011;51002;51.462;7.218;2023-06-22T02:00:56;1.20;;;0.30;;
41303;SDS011;51002;51.462;7.218;2023-06-22T02:03:34;1.37;;;0.30;;
41303;SDS011;51002;51.462;7.218;2023-06-22T02:06:08;1.37;;;0.30;;
41303;SDS011;51002;51.462;7.218;2023-06-22T02:08:40;1.57;;;0.37;;
41303;SDS011;51002;51.462;7.218;2023-06-22T02:11:13;1.47;;;0.40;;
41303;SDS011;51002;51.462;7.218;2023-06-22T02:13:41;1.07;;;0.20;;
41303;SDS011;51002;51.462;7.218;2023-06-22T02:16:08;1.30;;;0.30;;
41303;SDS011;51002;51.462;7.218;2023-06-22T02:18:36;1.20;;;0.30;;
41303;SDS011;51002;51.462;7.218;2023-06-22T02:21:05;2.03;;;0.60;;
41303;SDS011;51002;51.462;7.218;2023-06-22T02:23:32;1.53;;;0.40;;
41303;SDS011;51002;51.462;7.218;2023-06-22T02:26:01;1.35;;;0.47;;
41303;SDS011;51002;51.462;7.218;2023-06-22T02:28:27;1.60;;;0.30;;
41303;SDS011;51002;51.462;7.218;2023-06-22T02:30:53;1.53;;;0.40;;
41303;SDS011;51002;51.462;7.218;2023-06-22T02:33:18;1.43;;;0.37;;
41303;SDS011;51002;51.462;7.218;2023-06-22T02:35:44;2.27;;;0.67;;
41303;SDS011;51002;51.462;7.218;2023-06-22T02:38:12;1.15;;;0.38;;
41303;SDS011;51002;51.462;7.218;2023-06-22T02:40:40;1.27;;;0.40;;
41303;SDS011;51002;51.462;7.218;2023-06-22T02:43:06;1.43;;;0.30;;
41303;SDS011;51002;51.462;7.218;2023-06-22T02:45:32;1.90;;;0.50;;
41303;SDS011;51002;51.462;7.218;2023-06-22T02:48:02;1.25;;;0.30;;
41303;SDS011;51002;51.462;7.218;2023-06-22T02:50:30;1.57;;;0.50;;
41303;SDS011;51002;51.462;7.218;2023-06-22T02:52:56;1.70;;;0.43;;
41303;SDS011;51002;51.462;7.218;2023-06-22T02:55:21;43.53;;;13.87;;
41303;SDS011;51002;51.462;7.218;2023-06-22T02:57:48;74.00;;;26.53;;
41303;SDS011;51002;51.462;7.218;2023-06-22T03:00:17;76.90;;;29.23;;
41303;SDS011;51002;51.462;7.218;2023-06-22T03:02:46;58.17;;;22.03;;
41303;SDS011;51002;51.462;7.218;2023-06-22T03:05:15;12.67;;;4.60;;
41303;SDS011;51002;51.462;7.218;2023-06-22T03:07:43;1.48;;;0.52;;
41303;SDS011;51002;51.462;7.218;2023-06-22T03:10:09;44.07;;;15.13;;
41303;SDS011;51002;51.462;7.218;2023-06-22T03:12:36;63.13;;;22.27;;
41303;SDS011;51002;51.462;7.218;2023-06-22T03:15:04;108.63;;;38.67;;
41303;SDS011;51002;51.462;7.218;2023-06-22T03:17:34;77.83;;;28.03;;
41303;SDS011;51002;51.462;7.218;2023-06-22T03:20:00;96.07;;;34.47;;
41303;SDS011;51002;51.462;7.218;2023-06-22T03:22:34;74.60;;;26.93;;
41303;SDS011;51002;51.462;7.218;2023-06-22T03:25:03;45.50;;;15.73;;
41303;SDS011;51002;51.462;7.218;2023-06-22T03:27:34;88.57;;;31.50;;
41303;SDS011;51002;51.462;7.218;2023-06-22T03:30:01;1.33;;;0.27;;
41303;SDS011;51002;51.462;7.218;2023-06-22T03:32:27;57.23;;;19.87;;
41303;SDS011;51002;51.462;7.218;2023-06-22T03:34:53;41.13;;;14.33;;
41303;SDS011;51002;51.462;7.218;2023-06-22T03:37:18;47.67;;;17.23;;
41303;SDS011;51002;51.462;7.218;2023-06-22T03:39:44;68.93;;;24.83;;
41303;SDS011;51002;51.462;7.218;2023-06-22T03:42:12;38.10;;;13.82;;
41303;SDS011;51002;51.462;7.218;2023-06-22T03:44:38;48.20;;;17.23;;
41303;SDS011;51002;51.462;7.218;2023-06-22T03:47:05;35.67;;;12.73;;
41303;SDS011;51002;51.462;7.218;2023-06-22T03:49:32;47.27;;;17.07;;
41303;SDS011;51002;51.462;7.218;2023-06-22T03:51:59;1.33;;;0.20;;
41303;SDS011;51002;51.462;7.218;2023-06-22T03:54:26;1.53;;;0.50;;
41303;SDS011;51002;51.462;7.218;2023-06-22T03:56:51;1.37;;;0.20;;
41303;SDS011;51002;51.462;7.218;2023-06-22T03:59:17;95.50;;;35.17;;
41303;SDS011;51002;51.462;7.218;2023-06-22T04:01:42;93.33;;;34.37;;
41303;SDS011;51002;51.462;7.218;2023-06-22T04:04:08;1.47;;;0.33;;
41303;SDS011;51002;51.462;7.218;2023-06-22T04:06:33;1.47;;;0.30;;
41303;SDS011;51002;51.462;7.218;2023-06-22T04:08:59;1.73;;;0.27;;
41303;SDS011;51002;51.462;7.218;2023-06-22T04:11:26;1.97;;;0.40;;
41303;SDS011;51002;51.462;7.218;2023-06-22T04:13:51;1.33;;;0.30;;
41303;SDS011;51002;51.462;7.218;2023-06-22T04:16:17;1.37;;;0.30;;
41303;SDS011;51002;51.462;7.218;2023-06-22T04:18:42;1.43;;;0.33;;
41303;SDS011;51002;51.462;7.218;2023-06-22T04:21:09;1.53;;;0.27;;
41303;SDS011;51002;51.462;7.218;2023-06-22T04:23:37;1.53;;;0.37;;
41303;SDS011;51002;51.462;7.218;2023-06-22T04:26:06;1.15;;;0.28;;
41303;SDS011;51002;51.462;7.218;2023-06-22T04:28:31;1.40;;;0.20;;
41303;SDS011;51002;51.462;7.218;2023-06-22T04:31:02;1.40;;;0.27;;
41303;SDS011;51002;51.462;7.218;2023-06-22T04:33:28;1.43;;;0.30;;
41303;SDS011;51002;51.462;7.218;2023-06-22T04:35:56;1.13;;;0.15;;
41303;SDS011;51002;51.462;7.218;2023-06-22T04:38:26;1.33;;;0.30;;
41303;SDS011;51002;51.462;7.218;2023-06-22T04:40:58;1.93;;;0.63;;
41303;SDS011;51002;51.462;7.218;2023-06-22T04:43:23;119.47;;;43.60;;
41303;SDS011;51002;51.462;7.218;2023-06-22T04:45:49;91.73;;;33.13;;
41303;SDS011;51002;51.462;7.218;2023-06-22T04:48:17;1.10;;;0.20;;
41303;SDS011;51002;51.462;7.218;2023-06-22T04:50:42;46.33;;;16.47;;
41303;SDS011;51002;51.462;7.218;2023-06-22T04:53:09;49.07;;;17.47;;
41303;SDS011;51002;51.462;7.218;2023-06-22T04:55:37;85.80;;;31.02;;
41303;SDS011;51002;51.462;7.218;2023-06-22T04:58:06;95.10;;;34.90;;
41303;SDS011;51002;51.462;7.218;2023-06-22T05:00:38;1.63;;;0.30;;
41303;SDS011;51002;51.462;7.218;2023-06-22T05:03:03;1.47;;;0.27;;
41303;SDS011;51002;51.462;7.218;2023-06-22T05:05:31;2.05;;;0.45;;
41303;SDS011;51002;51.462;7.218;2023-06-22T05:07:57;75.07;;;27.07;;
41303;SDS011;51002;51.462;7.218;2023-06-22T05:10:26;60.47;;;22.03;;
41303;SDS011;51002;51.462;7.218;2023-06-22T05:12:52;62.77;;;22.37;;
41303;SDS011;51002;51.462;7.218;2023-06-22T05:15:17;13.73;;;4.83;;
41303;SDS011;51002;51.462;7.218;2023-06-22T05:17:47;60.97;;;21.90;;
41303;SDS011;51002;51.462;7.218;2023-06-22T05:20:13;3.50;;;1.00;;
41303;SDS011;51002;51.462;7.218;2023-06-22T05:22:39;1.63;;;0.50;;
41303;SDS011;51002;51.462;7.218;2023-06-22T05:25:08;116.07;;;41.93;;
41303;SDS011;51002;51.462;7.218;2023-06-22T05:27:35;1.43;;;0.30;;
41303;SDS011;51002;51.462;7.218;2023-06-22T05:30:04;1.37;;;0.23;;
41303;SDS011;51002;51.462;7.218;2023-06-22T05:32:31;1.43;;;0.30;;
41303;SDS011;51002;51.462;7.218;2023-06-22T05:34:57;1.33;;;0.20;;
41303;SDS011;51002;51.462;7.218;2023-06-22T05:37:25;1.53;;;0.43;;
41303;SDS011;51002;51.462;7.218;2023-06-22T05:39:51;2.42;;;0.55;;
41303;SDS011;51002;51.462;7.218;2023-06-22T05:42:17;1.33;;;0.27;;
41303;SDS011;51002;51.462;7.218;2023-06-22T05:44:45;1.37;;;0.30;;
41303;SDS011;51002;51.462;7.218;2023-06-22T05:47:12;1.37;;;0.30;;
41303;SDS011;51002;51.462;7.218;2023-06-22T05:49:37;1.50;;;0.30;;
41303;SDS011;51002;51.462;7.218;2023-06-22T05:52:03;1.87;;;0.40;;
41303;SDS011;51002;51.462;7.218;2023-06-22T05:54:31;1.13;;;0.20;;
41303;SDS011;51002;51.462;7.218;2023-06-22T05:56:57;1.50;;;0.43;;
41303;SDS011;51002;51.462;7.218;2023-06-22T05:59:25;2.77;;;0.73;;
41303;SDS011;51002;51.462;7.218;2023-06-22T06:01:50;1.92;;;0.32;;
41303;SDS011;51002;51.462;7.218;2023-06-22T06:04:19;1.77;;;0.50;;
41303;SDS011;51002;51.462;7.218;2023-06-22T06:09:16;1.27;;;0.50;;
41303;SDS011;51002;51.462;7.218;2023-06-22T06:11:41;111.10;;;40.65;;
41303;SDS011;51002;51.462;7.218;2023-06-22T06:14:07;78.93;;;28.47;;
41303;SDS011;51002;51.462;7.218;2023-06-22T06:16:33;76.33;;;27.47;;
41303;SDS011;51002;51.462;7.218;2023-06-22T06:18:58;56.20;;;20.30;;
41303;SDS011;51002;51.462;7.218;2023-06-22T06:21:24;44.70;;;15.73;;
41303;SDS011;51002;51.462;7.218;2023-06-22T06:23:52;70.43;;;25.10;;
41303;SDS011;51002;51.462;7.218;2023-06-22T06:26:18;78.55;;;28.52;;
41303;SDS011;51002;51.462;7.218;2023-06-22T06:28:52;80.60;;;28.63;;
41303;SDS011;51002;51.462;7.218;2023-06-22T06:31:20;77.20;;;28.65;;
41303;SDS011;51002;51.462;7.218;2023-06-22T06:33:46;77.17;;;28.17;;
41303;SDS011;51002;51.462;7.218;2023-06-22T06:36:12;78.90;;;28.87;;
41303;SDS011;51002;51.462;7.218;2023-06-22T06:38:40;75.90;;;27.40;;
41303;SDS011;51002;51.462;7.218;2023-06-22T06:41:05;2.73;;;0.80;;
41303;SDS011;51002;51.462;7.218;2023-06-22T06:43:31;60.93;;;22.13;;
41303;SDS011;51002;51.462;7.218;2023-06-22T06:45:57;60.03;;;21.33;;
41303;SDS011;51002;51.462;7.218;2023-06-22T06:48:22;79.03;;;28.83;;
41303;SDS011;51002;51.462;7.218;2023-06-22T06:50:48;77.53;;;28.70;;
41303;SDS011;51002;51.462;7.218;2023-06-22T06:53:13;75.17;;;27.67;;
41303;SDS011;51002;51.462;7.218;2023-06-22T06:55:39;78.67;;;28.93;;
41303;SDS011;51002;51.462;7.218;2023-06-22T06:58:05;69.13;;;25.63;;
41303;SDS011;51002;51.462;7.218;2023-06-22T07:00:34;53.03;;;19.50;;
41303;SDS011;51002;51.462;7.218;2023-06-22T07:03:02;76.43;;;28.75;;
41303;SDS011;51002;51.462;7.218;2023-06-22T07:05:28;71.80;;;27.70;;
41303;SDS011;51002;51.462;7.218;2023-06-22T07:07:56;68.90;;;26.80;;
41303;SDS011;51002;51.462;7.218;2023-06-22T07:10:21;72.03;;;27.77;;
41303;SDS011;51002;51.462;7.218;2023-06-22T07:12:47;78.10;;;28.77;;
41303;SDS011;51002;51.462;7.218;2023-06-22T07:15:13;71.40;;;27.27;;
41303;SDS011;51002;51.462;7.218;2023-06-22T07:17:38;70.03;;;26.57;;
41303;SDS011;51002;51.462;7.218;2023-06-22T07:20:07;77.43;;;28.47;;
41303;SDS011;51002;51.462;7.218;2023-06-22T07:22:40;68.70;;;24.73;;
41303;SDS011;51002;51.462;7.218;2023-06-22T07:25:08;73.40;;;26.33;;
41303;SDS011;51002;51.462;7.218;2023-06-22T07:27:56;81.07;;;29.57;;
41303;SDS011;51002;51.462;7.218;2023-06-22T07:30:22;75.07;;;27.27;;
41303;SDS011;51002;51.462;7.218;2023-06-22T07:32:48;75.20;;;27.23;;
41303;SDS011;51002;51.462;7.218;2023-06-22T07:35:13;40.93;;;14.73;;
41303;SDS011;51002;51.462;7.218;2023-06-22T07:37:41;40.40;;;14.53;;
41303;SDS011;51002;51.462;7.218;2023-06-22T07:40:12;38.35;;;13.90;;
41303;SDS011;51002;51.462;7.218;2023-06-22T07:42:40;51.30;;;18.63;;
41303;SDS011;51002;51.462;7.218;2023-06-22T07:45:06;62.80;;;23.50;;
41303;SDS011;51002;51.462;7.218;2023-06-22T07:47:36;76.77;;;27.87;;
41303;SDS011;51002;51.462;7.218;2023-06-22T07:50:02;72.30;;;26.13;;
41303;SDS011;51002;51.462;7.218;2023-06-22T07:52:30;66.07;;;23.77;;
41303;SDS011;51002;51.462;7.218;2023-06-22T07:54:56;47.50;;;17.00;;
41303;SDS011;51002;51.462;7.218;2023-06-22T07:57:24;54.00;;;19.35;;
41303;SDS011;51002;51.462;7.218;2023-06-22T07:59:58;63.17;;;23.13;;
41303;SDS011;51002;51.462;7.218;2023-06-22T08:02:33;68.23;;;24.50;;
41303;SDS011;51002;51.462;7.218;2023-06-22T08:04:59;110.78;;;39.67;;
41303;SDS011;51002;51.462;7.218;2023-06-22T08:07:27;76.87;;;27.87;;
41303;SDS011;51002;51.462;7.218;2023-06-22T08:09:52;131.95;;;47.72;;
41303;SDS011;51002;51.462;7.218;2023-06-22T08:12:18;3.20;;;1.03;;
41303;SDS011;51002;51.462;7.218;2023-06-22T08:14:44;98.97;;;35.53;;
41303;SDS011;51002;51.462;7.218;2023-06-22T08:17:11;99.23;;;35.47;;
41303;SDS011;51002;51.462;7.218;2023-06-22T08:19:37;1.20;;;0.30;;
41303;SDS011;51002;51.462;7.218;2023-06-22T08:22:02;1.43;;;0.40;;
41303;SDS011;51002;51.462;7.218;2023-06-22T08:24:28;1.17;;;0.20;;
41303;SDS011;51002;51.462;7.218;2023-06-22T08:26:55;1.53;;;0.33;;
41303;SDS011;51002;51.462;7.218;2023-06-22T09:21:39;1.80;;;0.60;;
41303;SDS011;51002;51.462;7.218;2023-06-22T09:24:04;1.27;;;0.37;;
41303;SDS011;51002;51.462;7.218;2023-06-22T09:26:30;1.13;;;0.20;;
41303;SDS011;51002;51.462;7.218;2023-06-22T09:28:56;1.20;;;0.32;;
41303;SDS011;51002;51.462;7.218;2023-06-22T09:31:22;1.25;;;0.40;;
41303;SDS011;51002;51.462;7.218;2023-06-22T09:33:54;1.10;;;0.20;;
41303;SDS011;51002;51.462;7.218;2023-06-22T09:36:20;1.17;;;0.35;;
41303;SDS011;51002;51.462;7.218;2023-06-22T09:38:49;0.82;;;0.22;;
41303;SDS011;51002;51.462;7.218;2023-06-22T09:41:20;0.85;;;0.25;;
41303;SDS011;51002;51.462;7.218;2023-06-22T09:43:46;0.68;;;0.35;;
41303;SDS011;51002;51.462;7.218;2023-06-22T09:46:13;0.32;;;0.10;;
41303;SDS011;51002;51.462;7.218;2023-06-22T09:48:42;1.40;;;0.40;;
41303;SDS011;51002;51.462;7.218;2023-06-22T09:51:11;1.27;;;0.20;;
41303;SDS011;51002;51.462;7.218;2023-06-22T09:53:36;1.23;;;0.25;;
41303;SDS011;51002;51.462;7.218;2023-06-22T09:56:03;1.33;;;0.30;;
41303;SDS011;51002;51.462;7.218;2023-06-22T09:58:28;1.27;;;0.30;;
41303;SDS011;51002;51.462;7.218;2023-06-22T10:00:54;1.35;;;0.40;;
41303;SDS011;51002;51.462;7.218;2023-06-22T10:03:20;1.48;;;0.55;;
41303;SDS011;51002;51.462;7.218;2023-06-22T10:05:46;1.33;;;0.30;;
41303;SDS011;51002;51.462;7.218;2023-06-22T10:08:12;1.45;;;0.43;;
41303;SDS011;51002;51.462;7.218;2023-06-22T10:10:37;1.45;;;0.40;;
41303;SDS011;51002;51.462;7.218;2023-06-22T10:13:07;0.90;;;0.20;;
41303;SDS011;51002;51.462;7.218;2023-06-22T10:15:36;1.20;;;0.43;;
41303;SDS011;51002;51.462;7.218;2023-06-22T10:18:05;0.70;;;0.20;;
41303;SDS011;51002;51.462;7.218;2023-06-22T10:20:35;0.73;;;0.20;;
41303;SDS011;51002;51.462;7.218;2023-06-22T10:23:01;0.80;;;0.30;;
41303;SDS011;51002;51.462;7.218;2023-06-22T10:25:27;0.80;;;0.30;;
41303;SDS011;51002;51.462;7.218;2023-06-22T10:27:53;0.77;;;0.20;;
41303;SDS011;51002;51.462;7.218;2023-06-22T10:30:18;0.88;;;0.30;;
41303;SDS011;51002;51.462;7.218;2023-06-22T10:32:46;0.85;;;0.47;;
41303;SDS011;51002;51.462;7.218;2023-06-22T10:35:12;0.77;;;0.22;;
41303;SDS011;51002;51.462;7.218;2023-06-22T10:37:44;0.63;;;0.10;;
41303;SDS011;51002;51.462;7.218;2023-06-22T10:40:11;0.85;;;0.30;;
41303;SDS011;51002;51.462;7.218;2023-06-22T10:42:38;0.68;;;0.30;;
41303;SDS011;51002;51.462;7.218;2023-06-22T10:45:04;0.90;;;0.20;;
41303;SDS011;51002;51.462;7.218;2023-06-22T10:47:32;0.93;;;0.38;;
41303;SDS011;51002;51.462;7.218;2023-06-22T10:52:26;0.98;;;0.30;;
41303;SDS011;51002;51.462;7.218;2023-06-22T10:54:52;1.15;;;0.57;;
41303;SDS011;51002;51.462;7.218;2023-06-22T10:57:18;0.80;;;0.28;;
41303;SDS011;51002;51.462;7.218;2023-06-22T10:59:44;0.55;;;0.15;;
41303;SDS011;51002;51.462;7.218;2023-06-22T11:02:11;0.88;;;0.22;;
41303;SDS011;51002;51.462;7.218;2023-06-22T11:04:39;0.98;;;0.30;;
41303;SDS011;51002;51.462;7.218;2023-06-22T11:07:05;0.87;;;0.30;;
41303;SDS011;51002;51.462;7.218;2023-06-22T11:09:33;1.30;;;0.77;;
41303;SDS011;51002;51.462;7.218;2023-06-22T11:12:01;1.40;;;0.67;;
41303;SDS011;51002;51.462;7.218;2023-06-22T11:14:27;1.95;;;1.13;;
41303;SDS011;51002;51.462;7.218;2023-06-22T11:16:55;1.77;;;0.82;;
41303;SDS011;51002;51.462;7.218;2023-06-22T11:19:23;1.60;;;0.55;;
41303;SDS011;51002;51.462;7.218;2023-06-22T11:21:51;1.13;;;0.47;;
41303;SDS011;51002;51.462;7.218;2023-06-22T11:24:17;1.33;;;0.30;;
41303;SDS011;51002;51.462;7.218;2023-06-22T11:26:43;1.27;;;0.30;;
41303;SDS011;51002;51.462;7.218;2023-06-22T11:29:08;1.13;;;0.30;;
41303;SDS011;51002;51.462;7.218;2023-06-22T11:31:34;1.47;;;0.63;;
41303;SDS011;51002;51.462;7.218;2023-06-22T11:34:00;1.10;;;0.30;;
41303;SDS011;51002;51.462;7.218;2023-06-22T11:36:26;1.27;;;0.40;;
41303;SDS011;51002;51.462;7.218;2023-06-22T11:38:52;1.47;;;0.70;;
41303;SDS011;51002;51.462;7.218;2023-06-22T11:41:20;1.70;;;0.85;;
41303;SDS011;51002;51.462;7.218;2023-06-22T11:43:48;1.20;;;0.40;;
41303;SDS011;51002;51.462;7.218;2023-06-22T11:46:13;1.20;;;0.30;;
41303;SDS011;51002;51.462;7.218;2023-06-22T11:48:41;1.38;;;0.50;;
41303;SDS011;51002;51.462;7.218;2023-06-22T11:51:07;1.23;;;0.50;;
41303;SDS011;51002;51.462;7.218;2023-06-22T11:53:34;1.23;;;0.30;;
41303;SDS011;51002;51.462;7.218;2023-06-22T11:56:00;1.37;;;0.60;;
41303;SDS011;51002;51.462;7.218;2023-06-22T11:58:26;1.23;;;0.43;;
